Denver, Colorado
Traffic Map
Current Weather Conditions
Denver, Colorado
Broken Clouds
Broken Clouds
39°
Feels Like: 33°
Wind Chill: 33° Ceiling: 22000
Heat Index: 39° Visibility: 10mi
Dew Point: Wind: 9mph
Humidity: 19% Direction: 210° (SSW)
Pressure: 29.74in Gusts: 0mph
Raw Report DataKDEN 121353Z 21008KT 10SM FEW150 BKN220 04/M18 A2974 RMK AO2 SLP070 T00391178
Traffic Incident Summary
Active as of:
Severity:
Category:
InformationThere was an issue retrieving the traffic information for this location. Please try a different location or try again shortly.
Advertisements